Time;durP1;ratioP1;P1;durP2;ratioP2;P2;SDS_P1;SDS_P2;PMS_P1;PMS_P2;Temp;Humidity;BMP_temperature;BMP_pressure;BME280_temperature;BME280_humidity;BME280_pressure;Samples;Min_cycle;Max_cycle;Signal;HPM_P1;HPM_P2
2023/06/06 00:01:51;;;;;;;0.30;0.30;;;20.90;53.90;;;;;;5083688;28;20193;-85
2023/06/06 00:04:19;;;;;;;0.30;0.30;;;20.90;54.00;;;;;;5077170;28;20774;-85
2023/06/06 00:06:47;;;;;;;0.27;0.27;;;20.90;53.90;;;;;;5080915;28;20212;-84
2023/06/06 00:09:16;;;;;;;0.20;0.20;;;20.90;54.00;;;;;;5080197;28;20190;-85
2023/06/06 00:11:46;;;;;;;0.20;0.20;;;20.90;54.00;;;;;;5092809;28;20556;-85
2023/06/06 00:14:18;;;;;;;0.30;0.30;;;20.80;53.90;;;;;;5085698;28;20225;-84
2023/06/06 00:16:48;;;;;;;0.27;0.27;;;20.80;54.00;;;;;;5088873;28;20667;-84
2023/06/06 00:19:20;;;;;;;0.73;0.50;;;20.80;54.10;;;;;;5088289;28;20213;-85
2023/06/06 00:21:49;;;;;;;0.20;0.20;;;20.80;54.20;;;;;;5099059;28;20239;-83
2023/06/06 00:24:19;;;;;;;0.27;0.27;;;20.70;54.30;;;;;;5087570;28;20218;-85
2023/06/06 00:26:47;;;;;;;0.93;0.77;;;20.70;54.40;;;;;;5090662;28;20258;-84
2023/06/06 00:29:15;;;;;;;0.57;0.40;;;20.70;54.60;;;;;;5090568;28;20617;-82
2023/06/06 00:31:44;;;;;;;0.20;0.20;;;20.70;54.60;;;;;;5091389;28;20198;-85
2023/06/06 00:34:12;;;;;;;0.30;0.30;;;20.60;54.80;;;;;;5083059;28;20201;-84
2023/06/06 00:36:42;;;;;;;0.20;0.20;;;20.60;55.40;;;;;;5075935;28;20217;-84
2023/06/06 00:39:10;;;;;;;0.30;0.30;;;20.60;55.60;;;;;;5091341;28;20197;-85
2023/06/06 00:41:39;;;;;;;0.30;0.30;;;20.60;56.60;;;;;;5091724;28;20213;-86
2023/06/06 00:44:07;;;;;;;0.30;0.30;;;20.50;56.60;;;;;;5090322;28;20217;-84
2023/06/06 00:46:35;;;;;;;0.43;0.23;;;20.40;57.20;;;;;;5089870;28;20270;-85
2023/06/06 00:49:04;;;;;;;0.20;0.20;;;20.40;57.10;;;;;;5093182;28;20588;-82
2023/06/06 00:51:34;;;;;;;0.57;0.57;;;20.40;57.50;;;;;;5096070;28;20198;-83
2023/06/06 00:54:06;;;;;;;0.20;0.20;;;20.30;57.10;;;;;;5086446;28;20225;-83
2023/06/06 00:56:37;;;;;;;0.83;0.40;;;20.30;57.20;;;;;;5088877;28;20189;-84
2023/06/06 00:59:06;;;;;;;3.30;0.47;;;20.30;57.60;;;;;;5083890;28;20195;-85
2023/06/06 01:01:36;;;;;;;0.30;0.30;;;20.30;57.40;;;;;;5080013;28;20190;-85
2023/06/06 01:04:08;;;;;;;0.63;0.40;;;20.20;58.20;;;;;;5090909;28;20218;-84
2023/06/06 01:06:37;;;;;;;0.40;0.40;;;20.20;58.60;;;;;;5083378;28;20189;-85
2023/06/06 01:09:09;;;;;;;0.43;0.43;;;20.10;58.70;;;;;;5086050;28;20206;-85
2023/06/06 01:11:45;;;;;;;0.20;0.20;;;20.10;59.00;;;;;;5087811;28;20187;-85
2023/06/06 01:14:22;;;;;;;0.20;0.20;;;20.00;58.80;;;;;;5081375;28;20183;-86
2023/06/06 01:16:53;;;;;;;0.37;0.37;;;20.00;58.80;;;;;;5089448;28;20199;-85
2023/06/06 01:19:29;;;;;;;0.57;0.57;;;19.90;58.80;;;;;;5089351;28;20185;-85
2023/06/06 01:21:59;;;;;;;0.40;0.40;;;19.90;59.10;;;;;;5076504;28;20693;-83
2023/06/06 01:24:29;;;;;;;0.93;0.83;;;19.90;59.20;;;;;;5088629;28;20210;-85
2023/06/06 01:26:57;;;;;;;2.50;0.47;;;19.80;59.20;;;;;;5092954;28;20199;-84
2023/06/06 01:29:25;;;;;;;0.17;0.17;;;19.80;59.20;;;;;;5093733;28;20596;-85
2023/06/06 01:32:02;;;;;;;0.20;0.20;;;19.70;59.50;;;;;;5080144;28;20202;-85
2023/06/06 01:34:36;;;;;;;0.20;0.20;;;19.70;59.80;;;;;;5087134;28;20265;-85
2023/06/06 01:37:12;;;;;;;0.77;0.50;;;19.60;60.10;;;;;;5077864;28;20193;-85
2023/06/06 01:39:46;;;;;;;2.57;1.07;;;19.60;60.70;;;;;;5094635;28;20190;-84
2023/06/06 01:42:16;;;;;;;0.70;0.70;;;19.50;61.20;;;;;;5077916;28;20233;-84
2023/06/06 01:44:45;;;;;;;0.50;0.50;;;19.40;61.60;;;;;;5080628;28;20225;-85
2023/06/06 01:47:14;;;;;;;1.07;0.50;;;19.40;61.90;;;;;;5090148;28;20652;-84
2023/06/06 01:49:43;;;;;;;0.60;0.57;;;19.30;61.90;;;;;;5075937;28;20197;-83
2023/06/06 01:52:13;;;;;;;1.30;0.50;;;19.30;62.40;;;;;;5091293;28;20189;-82
2023/06/06 01:54:45;;;;;;;0.50;0.50;;;19.20;62.20;;;;;;5087421;28;20189;-84
2023/06/06 01:57:13;;;;;;;0.70;0.70;;;19.20;62.60;;;;;;5072247;28;20209;-84
2023/06/06 01:59:41;;;;;;;0.87;0.40;;;19.10;63.10;;;;;;5092831;28;20193;-85
2023/06/06 02:02:10;;;;;;;0.30;0.30;;;19.00;62.70;;;;;;5079005;28;20209;-84
2023/06/06 02:04:39;;;;;;;0.63;0.50;;;19.10;62.60;;;;;;5080058;28;20307;-84
2023/06/06 02:07:08;;;;;;;0.23;0.23;;;19.00;62.90;;;;;;5085346;28;20197;-85
2023/06/06 02:09:37;;;;;;;1.03;0.73;;;19.00;63.00;;;;;;5078249;28;20207;-81
2023/06/06 02:12:07;;;;;;;0.30;0.30;;;18.90;63.40;;;;;;5090455;28;20274;-85
2023/06/06 02:14:36;;;;;;;0.30;0.30;;;18.90;63.50;;;;;;5097698;28;20212;-84
2023/06/06 02:17:05;;;;;;;1.50;0.93;;;18.90;63.10;;;;;;5087744;28;20198;-84
2023/06/06 02:19:33;;;;;;;0.43;0.40;;;18.90;63.00;;;;;;5090967;28;20215;-85
2023/06/06 02:22:02;;;;;;;0.20;0.20;;;18.90;62.90;;;;;;5082160;28;20238;-86
2023/06/06 02:24:30;;;;;;;0.40;0.40;;;18.80;63.00;;;;;;5080656;28;20226;-85
2023/06/06 02:27:01;;;;;;;0.20;0.20;;;18.80;62.70;;;;;;5082543;28;20190;-86
2023/06/06 02:29:29;;;;;;;1.80;0.67;;;18.80;63.30;;;;;;5078141;28;20226;-84
2023/06/06 02:31:58;;;;;;;0.53;0.50;;;18.80;63.00;;;;;;5086014;28;20194;-86
2023/06/06 02:34:26;;;;;;;0.87;0.50;;;18.80;62.80;;;;;;5082434;28;20641;-86
2023/06/06 02:36:57;;;;;;;0.20;0.20;;;18.80;62.70;;;;;;5088856;28;20205;-86
2023/06/06 02:39:25;;;;;;;0.30;0.30;;;18.80;62.80;;;;;;5078837;28;20647;-84
2023/06/06 02:41:54;;;;;;;0.20;0.20;;;18.80;63.70;;;;;;5091241;28;20190;-83
2023/06/06 02:44:23;;;;;;;0.40;0.40;;;18.70;64.60;;;;;;5072228;28;20267;-84
2023/06/06 02:46:52;;;;;;;0.73;0.40;;;18.80;64.70;;;;;;5087706;28;20190;-84
2023/06/06 02:49:20;;;;;;;1.00;0.70;;;18.70;64.10;;;;;;5093465;28;20647;-83
2023/06/06 02:51:49;;;;;;;0.37;0.37;;;18.70;64.20;;;;;;5091216;28;20197;-84
2023/06/06 02:54:17;;;;;;;0.40;0.40;;;18.70;64.60;;;;;;5079400;28;20191;-84
2023/06/06 02:56:45;;;;;;;0.50;0.50;;;18.70;64.60;;;;;;5087079;28;20190;-84
2023/06/06 02:59:14;;;;;;;0.73;0.33;;;18.60;64.50;;;;;;5084163;28;20249;-85
2023/06/06 03:01:46;;;;;;;0.27;0.23;;;18.60;64.70;;;;;;5090979;28;20659;-84
2023/06/06 03:04:15;;;;;;;0.30;0.30;;;18.60;64.70;;;;;;5071803;28;20191;-84
2023/06/06 03:06:44;;;;;;;0.50;0.50;;;18.50;64.80;;;;;;5083073;28;20203;-85
2023/06/06 03:09:14;;;;;;;13.73;1.13;;;18.50;65.30;;;;;;5073760;28;20202;-83
2023/06/06 03:11:42;;;;;;;0.33;0.30;;;18.50;65.50;;;;;;5088889;28;20658;-84
2023/06/06 03:14:11;;;;;;;0.60;0.57;;;18.50;65.60;;;;;;5092202;28;20189;-84
2023/06/06 03:16:39;;;;;;;0.50;0.40;;;18.40;65.50;;;;;;5088724;28;20276;-84
2023/06/06 03:19:10;;;;;;;0.23;0.23;;;18.40;65.80;;;;;;5084616;28;20193;-83
2023/06/06 03:21:38;;;;;;;0.63;0.63;;;18.30;65.90;;;;;;5097771;28;20226;-84
2023/06/06 03:24:07;;;;;;;1.73;0.47;;;18.40;66.10;;;;;;5085552;28;20651;-84
2023/06/06 03:26:36;;;;;;;0.90;0.87;;;18.30;66.20;;;;;;5082066;28;20199;-85
2023/06/06 03:29:04;;;;;;;1.23;0.90;;;18.40;66.40;;;;;;5081706;28;20189;-84
2023/06/06 03:31:33;;;;;;;0.37;0.37;;;18.30;66.10;;;;;;5084305;28;20255;-83
2023/06/06 03:34:02;;;;;;;1.13;0.50;;;18.30;66.20;;;;;;5089224;28;20201;-85
2023/06/06 03:36:33;;;;;;;0.50;0.50;;;18.40;66.30;;;;;;5094905;28;20609;-84
2023/06/06 03:39:02;;;;;;;0.30;0.30;;;18.40;66.40;;;;;;5100593;28;20307;-84
2023/06/06 03:41:31;;;;;;;0.70;0.70;;;18.40;66.50;;;;;;5105826;28;20282;-85
2023/06/06 03:44:01;;;;;;;0.53;0.37;;;18.40;66.60;;;;;;5109119;28;20636;-85
2023/06/06 03:46:29;;;;;;;0.90;0.50;;;18.40;67.10;;;;;;5093572;28;20217;-85
2023/06/06 03:48:58;;;;;;;0.30;0.30;;;18.40;67.00;;;;;;5083759;28;20195;-85
2023/06/06 03:51:26;;;;;;;0.20;0.20;;;18.40;67.40;;;;;;5087015;28;20189;-86
2023/06/06 03:53:56;;;;;;;0.30;0.30;;;18.40;67.70;;;;;;5081948;28;20214;-86
2023/06/06 03:56:24;;;;;;;0.30;0.30;;;18.50;67.70;;;;;;5084927;28;20201;-83
2023/06/06 03:58:53;;;;;;;0.43;0.43;;;18.50;68.00;;;;;;5078259;28;20201;-84
2023/06/06 04:01:21;;;;;;;0.80;0.40;;;18.50;68.10;;;;;;5086172;28;20202;-84
2023/06/06 04:03:50;;;;;;;0.53;0.50;;;18.50;67.80;;;;;;5084355;28;20213;-82
2023/06/06 04:06:20;;;;;;;4.20;0.93;;;18.60;68.20;;;;;;5086516;28;20220;-83
2023/06/06 04:08:48;;;;;;;0.50;0.40;;;18.60;68.30;;;;;;5088696;28;20191;-85
2023/06/06 04:11:18;;;;;;;0.50;0.50;;;18.60;68.50;;;;;;5086780;28;20190;-83
2023/06/06 04:13:46;;;;;;;1.00;0.60;;;18.60;68.30;;;;;;5090194;28;20204;-84
2023/06/06 04:16:14;;;;;;;1.13;0.70;;;18.70;68.50;;;;;;5085782;28;21896;-84
2023/06/06 04:18:43;;;;;;;0.77;0.73;;;18.70;68.00;;;;;;5076773;28;20643;-84
2023/06/06 04:21:11;;;;;;;0.30;0.30;;;18.80;67.80;;;;;;5078940;28;20535;-83
2023/06/06 04:23:39;;;;;;;0.53;0.40;;;18.90;67.60;;;;;;5086085;28;20605;-84
2023/06/06 04:26:10;;;;;;;0.40;0.40;;;18.90;67.70;;;;;;5091068;28;20221;-85
2023/06/06 04:28:48;;;;;;;0.40;0.40;;;18.90;68.00;;;;;;5087813;28;20619;-84
2023/06/06 04:31:17;;;;;;;0.40;0.40;;;19.00;67.60;;;;;;5089605;28;20181;-85
2023/06/06 04:33:53;;;;;;;0.40;0.40;;;19.00;67.50;;;;;;5087377;28;20310;-87
2023/06/06 04:36:25;;;;;;;0.90;0.67;;;19.10;67.20;;;;;;5091333;28;20196;-86
2023/06/06 04:39:00;;;;;;;0.40;0.30;;;19.20;67.10;;;;;;5080134;28;20272;-87
2023/06/06 04:41:30;;;;;;;0.50;0.30;;;19.20;67.00;;;;;;5088524;28;20190;-88
2023/06/06 04:44:04;;;;;;;1.23;0.60;;;19.20;67.00;;;;;;5085128;28;20186;-87
2023/06/06 04:46:32;;;;;;;0.23;0.23;;;19.30;67.20;;;;;;5091655;28;20262;-86
2023/06/06 04:49:01;;;;;;;0.50;0.50;;;19.30;67.00;;;;;;5076913;28;20194;-86
2023/06/06 04:51:33;;;;;;;0.23;0.23;;;19.40;66.90;;;;;;5079748;28;20642;-86
2023/06/06 04:54:05;;;;;;;0.93;0.90;;;19.50;66.90;;;;;;5088466;28;20617;-86
2023/06/06 04:56:35;;;;;;;8.10;0.60;;;19.50;66.90;;;;;;5092093;28;20198;-87
2023/06/06 04:59:06;;;;;;;0.43;0.43;;;19.60;67.00;;;;;;5094833;28;20194;-88
2023/06/06 05:01:36;;;;;;;0.97;0.70;;;19.60;67.00;;;;;;5086267;28;20193;-88
2023/06/06 05:04:07;;;;;;;11.87;0.60;;;19.70;66.90;;;;;;5088089;28;20189;-88
2023/06/06 05:06:36;;;;;;;1.03;0.57;;;19.70;66.60;;;;;;5083217;28;20289;-89
2023/06/06 05:09:04;;;;;;;1.30;0.50;;;19.70;66.70;;;;;;5079672;28;20190;-88
2023/06/06 05:11:33;;;;;;;0.67;0.40;;;19.80;66.80;;;;;;5080426;28;20194;-89
2023/06/06 05:14:06;;;;;;;0.70;0.50;;;19.80;66.70;;;;;;5081291;28;20187;-87
2023/06/06 05:16:34;;;;;;;0.50;0.50;;;19.90;66.80;;;;;;5083591;28;20198;-86
2023/06/06 05:19:03;;;;;;;2.63;0.87;;;19.90;66.60;;;;;;5090028;28;20235;-85
2023/06/06 05:21:33;;;;;;;0.50;0.40;;;20.00;66.90;;;;;;5091201;28;20217;-85
2023/06/06 05:24:01;;;;;;;0.73;0.47;;;20.10;67.50;;;;;;5086229;28;20231;-87
2023/06/06 05:26:31;;;;;;;0.73;0.73;;;20.10;66.80;;;;;;5090806;28;20217;-87
2023/06/06 05:29:00;;;;;;;0.30;0.30;;;20.20;67.00;;;;;;5088430;28;20206;-86
2023/06/06 05:31:33;;;;;;;0.60;0.60;;;20.20;66.90;;;;;;5079504;28;20198;-88
2023/06/06 05:34:03;;;;;;;0.90;0.83;;;20.30;66.80;;;;;;5077467;28;20197;-87
2023/06/06 05:36:31;;;;;;;0.30;0.30;;;20.40;66.80;;;;;;5081313;28;20198;-88
2023/06/06 05:39:00;;;;;;;1.30;0.50;;;20.50;66.80;;;;;;5089698;28;20202;-87
2023/06/06 05:41:28;;;;;;;0.40;0.40;;;20.50;66.50;;;;;;5086731;28;20220;-87
2023/06/06 05:43:57;;;;;;;1.73;0.63;;;20.50;67.10;;;;;;5092137;28;20613;-87
2023/06/06 05:46:26;;;;;;;1.30;0.77;;;20.60;66.90;;;;;;5079084;28;20296;-86
2023/06/06 05:48:56;;;;;;;1.43;0.73;;;20.70;66.90;;;;;;5076940;28;20320;-86
2023/06/06 05:51:26;;;;;;;2.10;0.97;;;20.70;67.20;;;;;;5083890;28;20192;-86
2023/06/06 05:53:54;;;;;;;0.30;0.30;;;20.70;66.80;;;;;;5094358;28;20209;-86
2023/06/06 05:56:40;;;;;;;0.50;0.50;;;20.80;67.00;;;;;;5084841;28;20647;-86
2023/06/06 05:59:08;;;;;;;0.53;0.50;;;20.80;66.90;;;;;;5097570;28;20190;-86
2023/06/06 06:01:39;;;;;;;0.73;0.60;;;20.90;66.60;;;;;;5089487;28;20626;-84
2023/06/06 06:04:09;;;;;;;1.50;0.90;;;20.90;66.40;;;;;;5084542;28;20185;-85
2023/06/06 06:06:38;;;;;;;1.15;1.02;;;21.00;66.40;;;;;;5079124;28;20232;-85
2023/06/06 06:09:07;;;;;;;0.50;0.50;;;21.00;66.50;;;;;;5089201;28;20189;-84
2023/06/06 06:11:35;;;;;;;1.40;0.93;;;21.10;66.30;;;;;;5082190;28;20685;-85
2023/06/06 06:14:03;;;;;;;0.82;0.75;;;21.10;66.30;;;;;;5082529;28;20190;-85
2023/06/06 06:16:32;;;;;;;1.73;0.70;;;21.20;66.10;;;;;;5093706;28;20200;-83
2023/06/06 06:19:00;;;;;;;0.65;0.65;;;21.30;66.00;;;;;;5081868;28;20187;-84
2023/06/06 06:21:32;;;;;;;2.63;0.90;;;21.30;65.40;;;;;;5074398;28;20237;-86
2023/06/06 06:24:05;;;;;;;0.35;0.35;;;21.40;65.30;;;;;;5087022;28;20202;-84
2023/06/06 06:26:46;;;;;;;0.38;0.38;;;21.50;65.30;;;;;;5086604;28;20206;-85
2023/06/06 06:29:15;;;;;;;1.33;0.82;;;21.60;65.30;;;;;;5085963;28;20186;-82
2023/06/06 06:31:43;;;;;;;1.25;0.93;;;21.50;64.40;;;;;;5080874;28;20276;-86
2023/06/06 06:34:12;;;;;;;0.43;0.40;;;21.70;64.50;;;;;;5092904;28;20214;-85
2023/06/06 06:36:42;;;;;;;2.45;0.90;;;21.70;64.50;;;;;;5090746;28;20197;-87
2023/06/06 06:39:19;;;;;;;0.40;0.40;;;21.80;64.10;;;;;;5080513;28;20608;-88
2023/06/06 06:41:48;;;;;;;0.47;0.38;;;21.90;63.40;;;;;;5077708;28;20628;-85
2023/06/06 06:44:16;;;;;;;0.93;0.73;;;22.00;63.00;;;;;;5086590;28;20551;-86
2023/06/06 06:46:45;;;;;;;0.60;0.60;;;22.10;62.80;;;;;;5085372;28;20690;-84
2023/06/06 06:49:15;;;;;;;0.25;0.25;;;22.20;62.50;;;;;;5089050;28;20181;-83
2023/06/06 06:51:45;;;;;;;1.05;0.82;;;22.20;62.40;;;;;;5079127;28;20190;-85
2023/06/06 06:54:15;;;;;;;1.23;0.63;;;22.30;61.80;;;;;;5088584;28;20193;-86
2023/06/06 06:56:44;;;;;;;0.95;0.75;;;22.40;61.90;;;;;;5088752;28;20597;-85
2023/06/06 06:59:13;;;;;;;1.35;1.00;;;22.50;62.00;;;;;;5089917;28;20580;-83
2023/06/06 07:01:49;;;;;;;1.05;0.77;;;22.60;61.60;;;;;;5088794;28;20200;-84
2023/06/06 07:04:17;;;;;;;0.40;0.40;;;22.60;60.40;;;;;;5090441;28;20219;-85
2023/06/06 07:06:47;;;;;;;0.90;0.70;;;22.70;60.40;;;;;;5095553;28;20591;-84
2023/06/06 07:09:16;;;;;;;0.80;0.40;;;22.70;60.50;;;;;;5094408;28;20216;-85
2023/06/06 07:11:45;;;;;;;0.80;0.80;;;22.80;60.10;;;;;;5085348;28;20232;-85
2023/06/06 07:14:13;;;;;;;1.35;0.60;;;22.90;60.00;;;;;;5096069;28;20197;-86
2023/06/06 07:16:44;;;;;;;0.43;0.40;;;23.00;59.70;;;;;;5094024;28;20247;-84
2023/06/06 07:19:12;;;;;;;4.15;0.60;;;23.10;59.50;;;;;;5093640;28;20202;-84
2023/06/06 07:21:40;;;;;;;0.95;0.60;;;23.20;59.40;;;;;;5090510;28;20226;-85
2023/06/06 07:24:11;;;;;;;5.55;0.93;;;23.20;58.60;;;;;;5093991;28;20186;-85
2023/06/06 07:26:39;;;;;;;0.60;0.60;;;23.30;58.20;;;;;;5092792;28;20860;-83
2023/06/06 07:29:08;;;;;;;0.85;0.40;;;23.30;57.90;;;;;;5093489;28;20225;-85
2023/06/06 07:31:36;;;;;;;2.30;1.05;;;23.40;57.80;;;;;;5095388;28;20669;-85
2023/06/06 07:34:05;;;;;;;0.30;0.30;;;23.50;57.30;;;;;;5093548;28;20552;-86
2023/06/06 07:36:33;;;;;;;1.05;0.80;;;23.60;57.60;;;;;;5091842;28;20216;-85
2023/06/06 07:39:01;;;;;;;2.03;0.68;;;23.60;57.30;;;;;;5092274;28;20206;-84
2023/06/06 07:41:33;;;;;;;0.88;0.60;;;23.70;56.70;;;;;;5091434;28;20194;-85
2023/06/06 07:44:02;;;;;;;4.68;0.82;;;23.70;55.50;;;;;;5074717;28;20239;-85
2023/06/06 07:46:30;;;;;;;1.13;0.82;;;23.70;55.60;;;;;;5081454;28;20197;-84
2023/06/06 07:48:59;;;;;;;0.43;0.40;;;23.80;55.40;;;;;;5091108;28;20200;-85
2023/06/06 07:51:28;;;;;;;0.47;0.47;;;23.90;55.70;;;;;;5093526;28;20543;-85
2023/06/06 07:53:56;;;;;;;1.35;0.47;;;24.00;55.50;;;;;;5091989;28;20194;-84
2023/06/06 07:56:24;;;;;;;6.32;0.75;;;24.10;55.50;;;;;;5093665;28;20555;-84
2023/06/06 07:58:54;;;;;;;1.38;0.65;;;24.10;53.70;;;;;;5094920;28;20200;-86
2023/06/06 08:01:23;;;;;;;0.70;0.40;;;24.10;54.20;;;;;;5090530;28;20193;-85
2023/06/06 08:03:54;;;;;;;0.68;0.50;;;24.20;54.70;;;;;;5087603;28;20556;-84
2023/06/06 08:06:23;;;;;;;1.75;0.77;;;24.30;54.00;;;;;;5091893;28;20654;-85
2023/06/06 08:08:52;;;;;;;0.93;0.80;;;24.40;53.80;;;;;;5094637;28;20228;-86
2023/06/06 08:11:20;;;;;;;0.95;0.60;;;24.40;53.60;;;;;;5095125;28;20202;-84
2023/06/06 08:13:49;;;;;;;0.50;0.40;;;24.50;53.70;;;;;;5090497;28;20198;-85
2023/06/06 08:16:18;;;;;;;0.45;0.38;;;24.50;53.10;;;;;;5094047;28;20209;-86
2023/06/06 08:18:46;;;;;;;1.38;0.82;;;24.60;53.20;;;;;;5089384;28;20198;-85
2023/06/06 08:21:15;;;;;;;0.63;0.63;;;24.60;53.10;;;;;;5091776;28;20190;-85
2023/06/06 08:23:44;;;;;;;0.50;0.50;;;24.60;52.20;;;;;;5092723;28;20189;-87
2023/06/06 08:26:12;;;;;;;0.55;0.52;;;24.80;52.70;;;;;;5084677;28;20214;-86
2023/06/06 08:28:40;;;;;;;1.17;0.75;;;24.80;52.30;;;;;;5093132;28;20300;-85
2023/06/06 08:31:09;;;;;;;4.63;1.50;;;24.80;52.20;;;;;;5092746;28;20204;-84
2023/06/06 08:33:41;;;;;;;0.98;0.65;;;24.80;50.20;;;;;;5094476;28;20221;-84
2023/06/06 08:36:10;;;;;;;3.65;0.40;;;24.80;50.60;;;;;;5091862;28;20281;-84
2023/06/06 08:38:38;;;;;;;4.95;0.50;;;24.90;50.50;;;;;;5074292;28;20194;-86
2023/06/06 08:41:08;;;;;;;0.63;0.50;;;24.90;50.70;;;;;;5085451;28;20288;-84
2023/06/06 08:43:41;;;;;;;0.85;0.57;;;25.00;50.90;;;;;;5073722;28;20281;-85
2023/06/06 08:46:09;;;;;;;0.50;0.50;;;25.00;50.60;;;;;;5086532;28;20197;-85
2023/06/06 08:48:41;;;;;;;3.00;0.50;;;25.10;51.70;;;;;;5093945;28;20221;-85
2023/06/06 08:51:11;;;;;;;0.30;0.30;;;25.20;51.20;;;;;;5093961;28;20189;-86
2023/06/06 08:53:42;;;;;;;0.60;0.60;;;25.20;50.40;;;;;;5085298;28;20194;-85
2023/06/06 08:56:12;;;;;;;0.47;0.38;;;25.30;50.70;;;;;;5088993;28;20559;-85
2023/06/06 08:58:43;;;;;;;1.52;0.50;;;25.30;49.60;;;;;;5087587;28;20190;-85
2023/06/06 09:01:11;;;;;;;1.00;0.38;;;25.40;49.70;;;;;;5092655;28;20189;-86
2023/06/06 09:03:43;;;;;;;0.82;0.40;;;25.40;50.00;;;;;;5087626;28;20266;-87
2023/06/06 09:06:12;;;;;;;1.10;0.60;;;25.50;49.50;;;;;;5093996;28;20185;-86
2023/06/06 09:08:41;;;;;;;1.85;0.57;;;25.60;49.70;;;;;;5092101;28;20229;-85
2023/06/06 09:11:10;;;;;;;0.73;0.47;;;25.60;48.70;;;;;;5080201;28;20197;-85
2023/06/06 09:13:42;;;;;;;0.57;0.40;;;25.60;48.10;;;;;;5093025;28;20537;-86
2023/06/06 09:16:10;;;;;;;1.40;0.50;;;25.70;48.30;;;;;;5086794;28;20721;-83
2023/06/06 09:18:41;;;;;;;1.27;0.80;;;25.70;48.70;;;;;;5091103;28;20201;-85
2023/06/06 09:21:10;;;;;;;0.95;0.60;;;25.80;48.70;;;;;;5099212;27;20197;-85
2023/06/06 09:23:38;;;;;;;0.52;0.50;;;25.80;48.70;;;;;;5080114;28;20536;-84
2023/06/06 09:26:19;;;;;;;1.35;0.63;;;25.90;48.80;;;;;;5081154;28;20543;-83
2023/06/06 09:28:48;;;;;;;1.08;0.63;;;25.90;49.00;;;;;;5098548;28;20204;-87
2023/06/06 09:31:29;;;;;;;2.08;1.15;;;26.00;48.80;;;;;;5085735;28;20649;-86
2023/06/06 09:34:00;;;;;;;2.88;0.70;;;26.10;48.00;;;;;;5079589;28;20655;-83
2023/06/06 09:36:31;;;;;;;0.70;0.70;;;26.10;47.70;;;;;;5090252;28;20232;-84
2023/06/06 09:39:05;;;;;;;1.02;0.40;;;26.20;48.00;;;;;;5078433;28;20561;-83
2023/06/06 09:41:42;;;;;;;1.52;0.98;;;26.20;47.60;;;;;;5080097;28;20560;-83
2023/06/06 09:44:20;;;;;;;0.70;0.45;;;26.30;47.60;;;;;;5088811;28;20557;-84
2023/06/06 09:46:49;;;;;;;0.73;0.60;;;26.30;47.40;;;;;;5082152;28;20226;-84
2023/06/06 09:49:20;;;;;;;0.85;0.55;;;26.40;47.80;;;;;;5090524;28;20307;-83
2023/06/06 09:51:49;;;;;;;4.47;0.40;;;26.50;47.70;;;;;;5090146;28;21118;-85
2023/06/06 09:54:17;;;;;;;1.83;0.70;;;26.60;47.60;;;;;;5087962;28;20240;-84
2023/06/06 09:56:49;;;;;;;2.70;0.70;;;26.60;47.60;;;;;;5078308;28;20598;-85
2023/06/06 09:59:17;;;;;;;1.83;0.80;;;26.60;47.10;;;;;;5081719;28;20292;-81
2023/06/06 10:01:50;;;;;;;3.20;0.88;;;26.60;46.80;;;;;;5088649;28;20196;-84
2023/06/06 10:04:20;;;;;;;0.60;0.50;;;26.70;47.10;;;;;;5082365;28;20186;-83
2023/06/06 10:06:51;;;;;;;0.52;0.43;;;26.80;47.10;;;;;;5080186;28;20196;-85
2023/06/06 10:09:20;;;;;;;0.50;0.40;;;26.90;47.60;;;;;;5084039;28;20202;-86
2023/06/06 10:11:48;;;;;;;0.60;0.50;;;26.90;47.40;;;;;;5083415;28;20204;-84
2023/06/06 10:14:17;;;;;;;1.67;0.73;;;27.00;47.30;;;;;;5083411;28;20294;-86
2023/06/06 10:16:45;;;;;;;1.00;0.63;;;27.10;47.60;;;;;;5090341;28;20197;-84
2023/06/06 10:19:14;;;;;;;0.30;0.30;;;27.10;47.60;;;;;;5083642;28;20227;-85
2023/06/06 10:21:45;;;;;;;1.02;0.65;;;27.20;47.10;;;;;;5088657;28;20317;-85
2023/06/06 10:24:16;;;;;;;0.75;0.50;;;27.30;47.40;;;;;;5081469;28;20237;-85
2023/06/06 10:26:50;;;;;;;1.70;0.82;;;27.30;47.40;;;;;;5078873;28;20195;-87
2023/06/06 10:29:26;;;;;;;6.82;0.90;;;27.40;47.00;;;;;;5084714;28;20217;-85
2023/06/06 10:31:58;;;;;;;1.77;1.15;;;27.50;47.00;;;;;;5086648;28;20246;-90
2023/06/06 10:34:31;;;;;;;1.08;0.70;;;27.50;46.20;;;;;;5092641;28;20212;-90
2023/06/06 10:37:15;;;;;;;0.93;0.60;;;27.60;45.50;;;;;;5082398;28;20202;-88
2023/06/06 10:39:48;;;;;;;1.63;0.95;;;27.70;46.00;;;;;;5075316;28;20285;-86
2023/06/06 10:42:16;;;;;;;2.22;0.70;;;27.70;45.80;;;;;;5077262;28;20225;-85
2023/06/06 10:44:56;;;;;;;1.00;0.60;;;27.80;46.20;;;;;;5083559;28;20202;-85
2023/06/06 10:47:27;;;;;;;1.75;1.00;;;27.80;45.90;;;;;;5078759;28;20608;-84
2023/06/06 10:50:17;;;;;;;1.02;0.82;;;27.90;46.00;;;;;;5083551;28;20202;-83
2023/06/06 10:52:49;;;;;;;0.90;0.60;;;28.00;45.60;;;;;;5070260;28;20288;-84
2023/06/06 10:55:18;;;;;;;0.95;0.82;;;28.00;45.70;;;;;;5086578;28;20189;-85
2023/06/06 10:57:51;;;;;;;2.28;1.35;;;28.10;45.20;;;;;;5084842;28;20250;-85
2023/06/06 11:00:24;;;;;;;2.15;0.90;;;28.10;45.10;;;;;;5092092;28;20189;-85
2023/06/06 11:02:55;;;;;;;1.25;0.90;;;28.20;45.10;;;;;;5081744;28;20214;-86
2023/06/06 11:05:24;;;;;;;7.40;0.80;;;28.20;45.50;;;;;;5082904;28;20193;-84
2023/06/06 11:08:00;;;;;;;6.95;1.00;;;28.30;45.50;;;;;;5080060;28;20198;-85
2023/06/06 11:10:30;;;;;;;7.88;1.02;;;28.40;45.60;;;;;;5087169;28;20750;-86
2023/06/06 11:13:26;;;;;;;4.25;1.60;;;28.40;45.70;;;;;;5082566;28;20556;-84
2023/06/06 11:15:57;;;;;;;0.63;0.57;;;28.50;45.10;;;;;;5080245;28;20675;-84
2023/06/06 11:18:37;;;;;;;0.40;0.40;;;28.50;45.00;;;;;;5087819;28;20701;-82
2023/06/06 11:21:06;;;;;;;0.70;0.70;;;28.60;44.90;;;;;;5094646;28;20194;-81
2023/06/06 11:23:41;;;;;;;1.95;1.02;;;28.60;45.10;;;;;;5078591;28;20206;-83
2023/06/06 11:26:10;;;;;;;1.02;0.73;;;28.70;44.70;;;;;;5086935;28;20531;-83
2023/06/06 11:28:39;;;;;;;1.35;0.98;;;28.70;44.70;;;;;;5079319;28;20202;-84
2023/06/06 11:31:08;;;;;;;1.05;0.80;;;28.70;44.70;;;;;;5083189;28;20541;-82
2023/06/06 11:33:37;;;;;;;1.63;1.00;;;28.80;44.40;;;;;;5078010;28;20616;-83
2023/06/06 11:36:06;;;;;;;1.42;0.70;;;28.80;44.60;;;;;;5069534;28;20252;-83
2023/06/06 11:38:35;;;;;;;0.20;0.20;;;28.80;44.00;;;;;;5089039;28;20229;-83
2023/06/06 11:41:06;;;;;;;1.33;0.93;;;28.80;44.00;;;;;;5075072;28;20288;-83
2023/06/06 11:43:34;;;;;;;2.88;0.77;;;28.80;43.40;;;;;;5087783;28;20233;-82
2023/06/06 11:46:04;;;;;;;1.15;0.65;;;28.80;43.70;;;;;;5096717;28;20630;-86
2023/06/06 11:48:33;;;;;;;0.63;0.57;;;28.90;43.70;;;;;;5081898;28;20206;-82
2023/06/06 11:51:11;;;;;;;0.65;0.40;;;29.00;44.10;;;;;;5081994;28;20709;-83
2023/06/06 11:53:40;;;;;;;1.85;0.70;;;29.00;44.20;;;;;;5077646;28;20565;-84
2023/06/06 11:56:15;;;;;;;0.85;0.63;;;29.10;44.60;;;;;;5090470;28;20201;-84
2023/06/06 11:58:45;;;;;;;0.50;0.50;;;29.20;44.80;;;;;;5090106;28;20189;-85
2023/06/06 12:01:15;;;;;;;1.25;0.77;;;29.20;44.70;;;;;;5083844;28;20190;-86
2023/06/06 12:03:45;;;;;;;0.50;0.50;;;29.30;45.00;;;;;;5096387;28;20189;-86
2023/06/06 12:06:13;;;;;;;1.35;0.82;;;29.40;44.80;;;;;;5084434;28;20272;-84
2023/06/06 12:08:43;;;;;;;0.65;0.57;;;29.40;44.30;;;;;;5096555;28;20198;-84
2023/06/06 12:11:29;;;;;;;0.32;0.32;;;29.50;44.80;;;;;;5082179;28;20218;-82
2023/06/06 12:13:58;;;;;;;1.98;0.68;;;29.50;44.90;;;;;;5082240;28;20643;-83
2023/06/06 12:16:28;;;;;;;0.93;0.50;;;29.40;44.40;;;;;;5088123;28;20664;-86
2023/06/06 12:18:57;;;;;;;0.85;0.65;;;29.40;44.30;;;;;;5086865;28;20205;-85
2023/06/06 12:21:25;;;;;;;3.53;0.70;;;29.50;44.50;;;;;;5084785;28;20582;-85
2023/06/06 12:23:53;;;;;;;0.90;0.68;;;29.60;44.90;;;;;;5088295;28;20217;-88
2023/06/06 12:26:25;;;;;;;0.93;0.40;;;29.70;44.80;;;;;;5087521;28;20222;-86
2023/06/06 12:28:56;;;;;;;2.17;0.70;;;29.80;44.70;;;;;;5082696;28;20183;-85
2023/06/06 12:31:24;;;;;;;1.63;1.52;;;29.90;44.40;;;;;;5083601;28;20230;-87
2023/06/06 12:33:54;;;;;;;0.88;0.52;;;30.00;44.70;;;;;;5073717;28;20198;-85
2023/06/06 12:36:25;;;;;;;0.85;0.80;;;30.10;44.60;;;;;;5081987;28;20197;-83
2023/06/06 12:39:00;;;;;;;0.50;0.50;;;30.20;44.70;;;;;;5081198;28;20198;-85
2023/06/06 12:41:40;;;;;;;1.15;0.55;;;30.20;44.90;;;;;;5094380;28;20236;-85
2023/06/06 12:44:12;;;;;;;0.75;0.60;;;30.30;44.40;;;;;;5080357;28;20185;-85
2023/06/06 12:46:41;;;;;;;1.33;0.55;;;30.40;44.60;;;;;;5081109;28;20200;-85
2023/06/06 12:49:11;;;;;;;2.53;0.93;;;30.50;44.60;;;;;;5085758;28;20297;-85
2023/06/06 12:51:39;;;;;;;0.40;0.40;;;30.60;43.90;;;;;;5085112;28;20225;-85
2023/06/06 12:54:10;;;;;;;0.88;0.60;;;30.70;43.80;;;;;;5089597;28;20292;-85
2023/06/06 12:56:38;;;;;;;0.50;0.50;;;30.80;44.10;;;;;;5078849;28;20191;-84
2023/06/06 12:59:07;;;;;;;1.05;0.68;;;30.90;43.90;;;;;;5074439;28;20221;-85
2023/06/06 13:01:38;;;;;;;0.98;0.75;;;30.80;43.30;;;;;;5084621;28;20651;-84
2023/06/06 13:04:06;;;;;;;0.60;0.52;;;30.80;43.30;;;;;;5088194;28;20335;-85